sensor_id;sensor_type;location;lat;lon;timestamp;pressure;altitude;pressure_sealevel;temperature;humidity
69060;BME280;56135;37.534;-122.308;2022-10-30T00:00:38;102107.31;;;18.57;72.69
69060;BME280;56135;37.534;-122.308;2022-10-30T00:03:06;102097.56;;;18.55;73.97
69060;BME280;56135;37.534;-122.308;2022-10-30T00:05:46;102104.06;;;18.44;75.90
69060;BME280;56135;37.534;-122.308;2022-10-30T00:08:18;102098.88;;;18.37;75.66
69060;BME280;56135;37.534;-122.308;2022-10-30T00:10:44;102101.72;;;18.30;77.57
69060;BME280;56135;37.534;-122.308;2022-10-30T00:13:17;102094.88;;;18.19;79.03
69060;BME280;56135;37.534;-122.308;2022-10-30T00:15:47;102096.81;;;18.12;81.49
69060;BME280;56135;37.534;-122.308;2022-10-30T00:18:15;102097.94;;;18.02;85.58
69060;BME280;56135;37.534;-122.308;2022-10-30T00:20:44;102102.66;;;17.87;89.16
69060;BME280;56135;37.534;-122.308;2022-10-30T00:23:15;102104.59;;;17.80;90.83
69060;BME280;56135;37.534;-122.308;2022-10-30T00:25:50;102105.81;;;17.65;95.41
69060;BME280;56135;37.534;-122.308;2022-10-30T00:28:24;102098.00;;;17.53;97.12
69060;BME280;56135;37.534;-122.308;2022-10-30T00:30:50;102093.78;;;17.41;100.00
69060;BME280;56135;37.534;-122.308;2022-10-30T00:33:15;102092.31;;;17.26;100.00
69060;BME280;56135;37.534;-122.308;2022-10-30T00:35:48;102091.53;;;17.21;100.00
69060;BME280;56135;37.534;-122.308;2022-10-30T00:38:16;102090.75;;;17.14;100.00
69060;BME280;56135;37.534;-122.308;2022-10-30T00:40:45;102089.25;;;16.99;100.00
69060;BME280;56135;37.534;-122.308;2022-10-30T00:43:34;102088.41;;;16.97;100.00
69060;BME280;56135;37.534;-122.308;2022-10-30T00:48:55;102079.72;;;16.84;100.00
69060;BME280;56135;37.534;-122.308;2022-10-30T00:51:24;102078.97;;;16.75;100.00
69060;BME280;56135;37.534;-122.308;2022-10-30T00:53:51;102083.53;;;16.68;100.00
69060;BME280;56135;37.534;-122.308;2022-10-30T00:56:20;102084.50;;;16.64;100.00
69060;BME280;56135;37.534;-122.308;2022-10-30T00:58:54;102092.75;;;16.48;100.00
69060;BME280;56135;37.534;-122.308;2022-10-30T01:01:34;102092.88;;;16.42;100.00
69060;BME280;56135;37.534;-122.308;2022-10-30T01:04:01;102088.53;;;16.37;100.00
69060;BME280;56135;37.534;-122.308;2022-10-30T01:06:28;102088.66;;;16.27;100.00
69060;BME280;56135;37.534;-122.308;2022-10-30T01:08:55;102090.56;;;16.17;100.00
69060;BME280;56135;37.534;-122.308;2022-10-30T01:11:24;102083.66;;;16.04;100.00
69060;BME280;56135;37.534;-122.308;2022-10-30T01:13:49;102091.72;;;15.98;100.00
69060;BME280;56135;37.534;-122.308;2022-10-30T01:18:51;102085.66;;;15.88;100.00
69060;BME280;56135;37.534;-122.308;2022-10-30T01:34:17;102073.81;;;15.39;100.00
69060;BME280;56135;37.534;-122.308;2022-10-30T01:39:11;102073.88;;;15.31;100.00
69060;BME280;56135;37.534;-122.308;2022-10-30T01:41:37;102073.97;;;15.24;100.00
69060;BME280;56135;37.534;-122.308;2022-10-30T01:44:07;102082.91;;;15.18;100.00
69060;BME280;56135;37.534;-122.308;2022-10-30T01:46:44;102082.97;;;15.12;100.00
69060;BME280;56135;37.534;-122.308;2022-10-30T01:51:50;102088.41;;;14.99;100.00
69060;BME280;56135;37.534;-122.308;2022-10-30T01:54:39;102086.69;;;14.95;100.00
69060;BME280;56135;37.534;-122.308;2022-10-30T01:57:12;102092.06;;;14.89;100.00
69060;BME280;56135;37.534;-122.308;2022-10-30T02:00:03;102094.81;;;14.80;100.00
69060;BME280;56135;37.534;-122.308;2022-10-30T02:02:27;102092.19;;;14.75;100.00
69060;BME280;56135;37.534;-122.308;2022-10-30T02:04:52;102092.22;;;14.71;100.00
69060;BME280;56135;37.534;-122.308;2022-10-30T02:07:19;102097.63;;;14.64;100.00
69060;BME280;56135;37.534;-122.308;2022-10-30T02:09:45;102095.81;;;14.59;100.00
69060;BME280;56135;37.534;-122.308;2022-10-30T02:12:10;102098.53;;;14.56;100.00
69060;BME280;56135;37.534;-122.308;2022-10-30T02:14:44;102099.47;;;14.50;100.00
69060;BME280;56135;37.534;-122.308;2022-10-30T02:17:10;102102.16;;;14.47;100.00
69060;BME280;56135;37.534;-122.308;2022-10-30T02:19:37;102103.06;;;14.41;100.00
69060;BME280;56135;37.534;-122.308;2022-10-30T02:22:03;102091.56;;;14.36;100.00
69060;BME280;56135;37.534;-122.308;2022-10-30T02:24:29;102100.44;;;14.33;100.00
69060;BME280;56135;37.534;-122.308;2022-10-30T02:26:55;102094.31;;;14.28;100.00
69060;BME280;56135;37.534;-122.308;2022-10-30T02:29:21;102095.22;;;14.21;100.00
69060;BME280;56135;37.534;-122.308;2022-10-30T02:31:47;102103.22;;;14.15;100.00
69060;BME280;56135;37.534;-122.308;2022-10-30T02:34:13;102111.22;;;14.13;100.00
69060;BME280;56135;37.534;-122.308;2022-10-30T02:36:39;102113.03;;;14.10;100.00
69060;BME280;56135;37.534;-122.308;2022-10-30T02:39:05;102118.31;;;14.08;100.00
69060;BME280;56135;37.534;-122.308;2022-10-30T02:41:31;102114.81;;;14.01;100.00
69060;BME280;56135;37.534;-122.308;2022-10-30T02:43:57;102110.41;;;13.97;100.00
69060;BME280;56135;37.534;-122.308;2022-10-30T02:46:23;102110.44;;;13.94;100.00
69060;BME280;56135;37.534;-122.308;2022-10-30T02:48:48;102108.69;;;13.92;100.00
69060;BME280;56135;37.534;-122.308;2022-10-30T02:51:14;102113.13;;;13.91;100.00
69060;BME280;56135;37.534;-122.308;2022-10-30T02:53:40;102107.78;;;13.93;100.00
69060;BME280;56135;37.534;-122.308;2022-10-30T02:56:07;102106.88;;;13.94;100.00
69060;BME280;56135;37.534;-122.308;2022-10-30T02:58:33;102110.41;;;14.02;100.00
69060;BME280;56135;37.534;-122.308;2022-10-30T03:01:06;102112.13;;;14.09;100.00
69060;BME280;56135;37.534;-122.308;2022-10-30T03:03:40;102112.13;;;14.14;100.00
69060;BME280;56135;37.534;-122.308;2022-10-30T03:06:11;102105.91;;;14.16;100.00
69060;BME280;56135;37.534;-122.308;2022-10-30T03:08:45;102105.03;;;14.13;100.00
69060;BME280;56135;37.534;-122.308;2022-10-30T03:11:14;102107.69;;;14.13;100.00
69060;BME280;56135;37.534;-122.308;2022-10-30T03:13:45;102101.47;;;14.11;100.00
69060;BME280;56135;37.534;-122.308;2022-10-30T03:16:26;102110.38;;;14.05;100.00
69060;BME280;56135;37.534;-122.308;2022-10-30T03:18:56;102107.75;;;13.99;100.00
69060;BME280;56135;37.534;-122.308;2022-10-30T03:21:34;102114.88;;;13.92;100.00
69060;BME280;56135;37.534;-122.308;2022-10-30T03:24:05;102106.94;;;13.86;100.00
69060;BME280;56135;37.534;-122.308;2022-10-30T03:26:31;102110.50;;;13.83;100.00
69060;BME280;56135;37.534;-122.308;2022-10-30T03:29:16;102106.97;;;13.80;100.00
69060;BME280;56135;37.534;-122.308;2022-10-30T03:31:45;102103.44;;;13.75;100.00
69060;BME280;56135;37.534;-122.308;2022-10-30T03:34:11;102116.72;;;13.73;100.00
69060;BME280;56135;37.534;-122.308;2022-10-30T03:36:37;102118.50;;;13.73;100.00
69060;BME280;56135;37.534;-122.308;2022-10-30T03:39:11;102113.19;;;13.71;100.00
69060;BME280;56135;37.534;-122.308;2022-10-30T03:41:49;102115.84;;;13.73;100.00
69060;BME280;56135;37.534;-122.308;2022-10-30T03:44:15;102113.19;;;13.73;100.00
69060;BME280;56135;37.534;-122.308;2022-10-30T03:46:43;102120.28;;;13.71;100.00
69060;BME280;56135;37.534;-122.308;2022-10-30T03:49:09;102127.34;;;13.73;100.00
69060;BME280;56135;37.534;-122.308;2022-10-30T03:51:38;102129.13;;;13.73;100.00
69060;BME280;56135;37.534;-122.308;2022-10-30T03:54:04;102125.59;;;13.67;100.00
69060;BME280;56135;37.534;-122.308;2022-10-30T03:56:30;102127.38;;;13.65;100.00
69060;BME280;56135;37.534;-122.308;2022-10-30T03:58:55;102128.25;;;13.64;100.00
69060;BME280;56135;37.534;-122.308;2022-10-30T04:01:21;102126.50;;;13.63;100.00
69060;BME280;56135;37.534;-122.308;2022-10-30T04:03:47;102122.97;;;13.61;100.00
69060;BME280;56135;37.534;-122.308;2022-10-30T04:06:13;102114.13;;;13.61;100.00
69060;BME280;56135;37.534;-122.308;2022-10-30T04:08:39;102126.53;;;13.57;100.00
69060;BME280;56135;37.534;-122.308;2022-10-30T04:11:10;102121.22;;;13.52;100.00
69060;BME280;56135;37.534;-122.308;2022-10-30T04:13:36;102120.34;;;13.54;100.00
69060;BME280;56135;37.534;-122.308;2022-10-30T04:16:02;102122.09;;;13.56;100.00
69060;BME280;56135;37.534;-122.308;2022-10-30T04:18:29;102129.19;;;13.51;100.00
69060;BME280;56135;37.534;-122.308;2022-10-30T04:21:03;102125.66;;;13.50;100.00
69060;BME280;56135;37.534;-122.308;2022-10-30T04:23:32;102126.56;;;13.48;100.00
69060;BME280;56135;37.534;-122.308;2022-10-30T04:26:01;102133.63;;;13.43;100.00
69060;BME280;56135;37.534;-122.308;2022-10-30T04:31:24;102119.47;;;13.34;100.00
69060;BME280;56135;37.534;-122.308;2022-10-30T04:33:59;102122.13;;;13.30;100.00
69060;BME280;56135;37.534;-122.308;2022-10-30T04:36:27;102121.25;;;13.23;100.00
69060;BME280;56135;37.534;-122.308;2022-10-30T04:38:59;102120.38;;;13.16;100.00
69060;BME280;56135;37.534;-122.308;2022-10-30T04:41:28;102127.47;;;13.14;100.00
69060;BME280;56135;37.534;-122.308;2022-10-30T04:43:56;102123.03;;;13.09;100.00
69060;BME280;56135;37.534;-122.308;2022-10-30T04:46:34;102136.34;;;13.02;100.00
69060;BME280;56135;37.534;-122.308;2022-10-30T04:49:02;102136.34;;;13.01;100.00
69060;BME280;56135;37.534;-122.308;2022-10-30T04:51:36;102133.66;;;12.99;100.00
69060;BME280;56135;37.534;-122.308;2022-10-30T04:54:07;102125.72;;;12.96;100.00
69060;BME280;56135;37.534;-122.308;2022-10-30T04:56:33;102128.38;;;12.93;100.00
69060;BME280;56135;37.534;-122.308;2022-10-30T04:58:59;102130.13;;;12.91;100.00
69060;BME280;56135;37.534;-122.308;2022-10-30T05:01:24;102124.84;;;12.83;100.00
69060;BME280;56135;37.534;-122.308;2022-10-30T05:03:50;102123.97;;;12.81;100.00
69060;BME280;56135;37.534;-122.308;2022-10-30T05:06:21;102129.25;;;12.77;100.00
69060;BME280;56135;37.534;-122.308;2022-10-30T05:08:48;102130.13;;;12.73;100.00
69060;BME280;56135;37.534;-122.308;2022-10-30T05:11:14;102134.56;;;12.71;100.00
69060;BME280;56135;37.534;-122.308;2022-10-30T05:13:40;102139.88;;;12.71;100.00
69060;BME280;56135;37.534;-122.308;2022-10-30T05:16:05;102140.72;;;12.66;100.00
69060;BME280;56135;37.534;-122.308;2022-10-30T05:18:31;102139.00;;;12.64;100.00
69060;BME280;56135;37.534;-122.308;2022-10-30T05:20:57;102150.44;;;12.60;100.00
69060;BME280;56135;37.534;-122.308;2022-10-30T05:23:23;102145.16;;;12.55;100.00
69060;BME280;56135;37.534;-122.308;2022-10-30T05:25:49;102144.25;;;12.50;100.00
69060;BME280;56135;37.534;-122.308;2022-10-30T05:28:14;102144.25;;;12.50;100.00
69060;BME280;56135;37.534;-122.308;2022-10-30T05:30:40;102165.47;;;12.47;100.00
69060;BME280;56135;37.534;-122.308;2022-10-30T05:33:08;102154.88;;;12.47;100.00
69060;BME280;56135;37.534;-122.308;2022-10-30T05:35:34;102164.59;;;12.51;100.00
69060;BME280;56135;37.534;-122.308;2022-10-30T05:38:01;102159.28;;;12.62;100.00
69060;BME280;56135;37.534;-122.308;2022-10-30T05:40:27;102169.03;;;12.71;100.00
69060;BME280;56135;37.534;-122.308;2022-10-30T05:42:53;102163.72;;;12.72;100.00
69060;BME280;56135;37.534;-122.308;2022-10-30T05:45:19;102172.56;;;12.71;100.00
69060;BME280;56135;37.534;-122.308;2022-10-30T05:47:55;102166.41;;;12.80;100.00
69060;BME280;56135;37.534;-122.308;2022-10-30T05:50:21;102173.44;;;12.79;100.00
69060;BME280;56135;37.534;-122.308;2022-10-30T05:52:46;102169.03;;;12.86;100.00
69060;BME280;56135;37.534;-122.308;2022-10-30T05:55:12;102170.78;;;12.90;100.00
69060;BME280;56135;37.534;-122.308;2022-10-30T05:57:38;102167.25;;;12.93;100.00
69060;BME280;56135;37.534;-122.308;2022-10-30T06:00:04;102157.53;;;12.89;100.00
69060;BME280;56135;37.534;-122.308;2022-10-30T06:02:30;102156.66;;;12.91;100.00
69060;BME280;56135;37.534;-122.308;2022-10-30T06:04:56;102154.03;;;12.87;100.00
69060;BME280;56135;37.534;-122.308;2022-10-30T06:07:21;102153.13;;;12.86;100.00
69060;BME280;56135;37.534;-122.308;2022-10-30T06:09:47;102152.25;;;12.85;100.00
69060;BME280;56135;37.534;-122.308;2022-10-30T06:12:13;102146.94;;;12.81;100.00
69060;BME280;56135;37.534;-122.308;2022-10-30T06:14:39;102143.38;;;12.76;100.00
69060;BME280;56135;37.534;-122.308;2022-10-30T06:17:04;102138.97;;;12.70;100.00
69060;BME280;56135;37.534;-122.308;2022-10-30T06:19:30;102136.31;;;12.62;100.00
69060;BME280;56135;37.534;-122.308;2022-10-30T06:21:56;102137.22;;;12.61;100.00
69060;BME280;56135;37.534;-122.308;2022-10-30T06:24:22;102141.63;;;12.58;100.00
69060;BME280;56135;37.534;-122.308;2022-10-30T06:26:47;102138.06;;;12.54;100.00
69060;BME280;56135;37.534;-122.308;2022-10-30T06:29:15;102141.63;;;12.56;100.00
69060;BME280;56135;37.534;-122.308;2022-10-30T06:31:41;102135.41;;;12.54;100.00
69060;BME280;56135;37.534;-122.308;2022-10-30T06:34:06;102137.22;;;12.52;100.00
69060;BME280;56135;37.534;-122.308;2022-10-30T06:36:32;102143.34;;;12.48;100.00
69060;BME280;56135;37.534;-122.308;2022-10-30T06:38:58;102146.88;;;12.42;100.00
69060;BME280;56135;37.534;-122.308;2022-10-30T06:41:24;102147.78;;;12.37;100.00
69060;BME280;56135;37.534;-122.308;2022-10-30T06:43:49;102149.50;;;12.34;100.00
69060;BME280;56135;37.534;-122.308;2022-10-30T06:46:15;102143.34;;;12.31;100.00
69060;BME280;56135;37.534;-122.308;2022-10-30T06:48:41;102140.66;;;12.29;100.00
69060;BME280;56135;37.534;-122.308;2022-10-30T06:51:07;102130.94;;;12.25;100.00
69060;BME280;56135;37.534;-122.308;2022-10-30T06:53:32;102129.16;;;12.21;100.00
69060;BME280;56135;37.534;-122.308;2022-10-30T06:55:59;102116.81;;;12.17;100.00
69060;BME280;56135;37.534;-122.308;2022-10-30T06:58:25;102117.69;;;12.13;100.00
69060;BME280;56135;37.534;-122.308;2022-10-30T07:00:51;102112.38;;;12.08;100.00
69060;BME280;56135;37.534;-122.308;2022-10-30T07:03:17;102111.47;;;12.06;100.00
69060;BME280;56135;37.534;-122.308;2022-10-30T07:05:43;102108.81;;;12.01;100.00
69060;BME280;56135;37.534;-122.308;2022-10-30T07:08:08;102103.50;;;11.98;100.00
69060;BME280;56135;37.534;-122.308;2022-10-30T07:10:34;102104.38;;;11.96;100.00
69060;BME280;56135;37.534;-122.308;2022-10-30T07:13:00;102096.41;;;11.91;100.00
69060;BME280;56135;37.534;-122.308;2022-10-30T07:15:26;102099.03;;;11.85;100.00
69060;BME280;56135;37.534;-122.308;2022-10-30T07:17:53;102095.47;;;11.81;100.00
69060;BME280;56135;37.534;-122.308;2022-10-30T07:20:19;102099.91;;;11.81;100.00
69060;BME280;56135;37.534;-122.308;2022-10-30T07:22:45;102091.94;;;11.78;100.00
69060;BME280;56135;37.534;-122.308;2022-10-30T07:25:11;102105.16;;;11.73;100.00
69060;BME280;56135;37.534;-122.308;2022-10-30T07:27:43;102091.91;;;11.73;100.00
69060;BME280;56135;37.534;-122.308;2022-10-30T07:30:10;102088.41;;;11.73;100.00
69060;BME280;56135;37.534;-122.308;2022-10-30T07:32:36;102088.41;;;11.73;100.00
69060;BME280;56135;37.534;-122.308;2022-10-30T07:35:02;102091.91;;;11.70;100.00
69060;BME280;56135;37.534;-122.308;2022-10-30T07:37:28;102094.53;;;11.65;100.00
69060;BME280;56135;37.534;-122.308;2022-10-30T07:39:54;102087.44;;;11.61;100.00
69060;BME280;56135;37.534;-122.308;2022-10-30T07:42:20;102086.53;;;11.56;100.00
69060;BME280;56135;37.534;-122.308;2022-10-30T07:44:45;102079.47;;;11.54;100.00
69060;BME280;56135;37.534;-122.308;2022-10-30T07:47:11;102081.22;;;11.45;100.00
69060;BME280;56135;37.534;-122.308;2022-10-30T07:49:37;102074.13;;;11.43;100.00
69060;BME280;56135;37.534;-122.308;2022-10-30T07:52:03;102078.53;;;11.39;100.00
69060;BME280;56135;37.534;-122.308;2022-10-30T07:54:29;102080.34;;;11.45;100.00
69060;BME280;56135;37.534;-122.308;2022-10-30T07:56:54;102081.19;;;11.41;100.00
69060;BME280;56135;37.534;-122.308;2022-10-30T07:59:21;102073.25;;;11.41;100.00
69060;BME280;56135;37.534;-122.308;2022-10-30T08:01:47;102077.59;;;11.32;100.00
69060;BME280;56135;37.534;-122.308;2022-10-30T08:04:13;102073.16;;;11.24;100.00
69060;BME280;56135;37.534;-122.308;2022-10-30T08:06:39;102068.72;;;11.18;100.00
69060;BME280;56135;37.534;-122.308;2022-10-30T08:09:05;102073.06;;;11.10;100.00
69060;BME280;56135;37.534;-122.308;2022-10-30T08:11:31;102075.69;;;11.08;100.00
69060;BME280;56135;37.534;-122.308;2022-10-30T08:13:57;102085.53;;;11.28;100.00
69060;BME280;56135;37.534;-122.308;2022-10-30T08:16:22;102086.44;;;11.34;100.00
69060;BME280;56135;37.534;-122.308;2022-10-30T08:18:48;102085.53;;;11.29;100.00
69060;BME280;56135;37.534;-122.308;2022-10-30T08:21:14;102092.59;;;11.29;100.00
69060;BME280;56135;37.534;-122.308;2022-10-30T08:23:40;102092.66;;;11.37;100.00
69060;BME280;56135;37.534;-122.308;2022-10-30T08:26:06;102088.13;;;11.18;100.00
69060;BME280;56135;37.534;-122.308;2022-10-30T08:28:31;102086.28;;;11.07;100.00
69060;BME280;56135;37.534;-122.308;2022-10-30T08:30:58;102088.88;;;11.02;100.00
69060;BME280;56135;37.534;-122.308;2022-10-30T08:33:24;102082.69;;;10.97;100.00
69060;BME280;56135;37.534;-122.308;2022-10-30T08:35:50;102082.63;;;10.88;100.00
69060;BME280;56135;37.534;-122.308;2022-10-30T08:38:16;102089.66;;;10.84;100.00
69060;BME280;56135;37.534;-122.308;2022-10-30T08:40:42;102090.44;;;10.75;100.00
69060;BME280;56135;37.534;-122.308;2022-10-30T08:43:08;102089.53;;;10.70;100.00
69060;BME280;56135;37.534;-122.308;2022-10-30T08:45:34;102083.31;;;10.63;100.00
69060;BME280;56135;37.534;-122.308;2022-10-30T08:48:01;102089.44;;;10.58;100.00
69060;BME280;56135;37.534;-122.308;2022-10-30T08:50:31;102083.22;;;10.51;100.00
69060;BME280;56135;37.534;-122.308;2022-10-30T08:53:00;102078.78;;;10.47;100.00
69060;BME280;56135;37.534;-122.308;2022-10-30T08:55:26;102078.75;;;10.45;100.00
69060;BME280;56135;37.534;-122.308;2022-10-30T08:57:52;102085.78;;;10.43;100.00
69060;BME280;56135;37.534;-122.308;2022-10-30T09:00:17;102084.03;;;10.44;100.00
69060;BME280;56135;37.534;-122.308;2022-10-30T09:02:43;102086.69;;;10.45;100.00
69060;BME280;56135;37.534;-122.308;2022-10-30T09:05:09;102081.34;;;10.42;100.00
69060;BME280;56135;37.534;-122.308;2022-10-30T09:07:35;102079.63;;;10.43;100.00
69060;BME280;56135;37.534;-122.308;2022-10-30T09:10:01;102084.06;;;10.47;100.00
69060;BME280;56135;37.534;-122.308;2022-10-30T09:12:27;102077.91;;;10.48;100.00
69060;BME280;56135;37.534;-122.308;2022-10-30T09:14:53;102075.28;;;10.49;100.00
69060;BME280;56135;37.534;-122.308;2022-10-30T09:17:18;102069.06;;;10.46;100.00
69060;BME280;56135;37.534;-122.308;2022-10-30T09:19:44;102069.94;;;10.45;100.00
69060;BME280;56135;37.534;-122.308;2022-10-30T09:22:10;102062.84;;;10.39;100.00
69060;BME280;56135;37.534;-122.308;2022-10-30T09:24:35;102067.22;;;10.35;100.00
69060;BME280;56135;37.534;-122.308;2022-10-30T09:27:03;102061.84;;;10.29;100.00
69060;BME280;56135;37.534;-122.308;2022-10-30T09:29:28;102060.91;;;10.24;100.00
69060;BME280;56135;37.534;-122.308;2022-10-30T09:31:56;102064.41;;;10.20;100.00
69060;BME280;56135;37.534;-122.308;2022-10-30T09:34:21;102065.25;;;10.16;100.00
69060;BME280;56135;37.534;-122.308;2022-10-30T09:36:47;102059.91;;;10.10;100.00
69060;BME280;56135;37.534;-122.308;2022-10-30T09:39:14;102061.56;;;10.01;100.00
69060;BME280;56135;37.534;-122.308;2022-10-30T09:49:23;102072.72;;;9.77;100.00
69060;BME280;56135;37.534;-122.308;2022-10-30T09:54:44;102071.66;;;9.61;100.00
69060;BME280;56135;37.534;-122.308;2022-10-30T10:02:36;102063.56;;;9.44;100.00
69060;BME280;56135;37.534;-122.308;2022-10-30T10:05:05;102064.31;;;9.37;100.00
69060;BME280;56135;37.534;-122.308;2022-10-30T10:07:36;102071.25;;;9.30;100.00
69060;BME280;56135;37.534;-122.308;2022-10-30T10:10:10;102066.78;;;9.23;100.00
69060;BME280;56135;37.534;-122.308;2022-10-30T10:12:47;102070.25;;;9.19;100.00
69060;BME280;56135;37.534;-122.308;2022-10-30T10:18:16;102070.91;;;9.06;100.00
69060;BME280;56135;37.534;-122.308;2022-10-30T10:20:44;102065.56;;;9.01;100.00
69060;BME280;56135;37.534;-122.308;2022-10-30T10:25:44;102059.22;;;8.88;100.00
69060;BME280;56135;37.534;-122.308;2022-10-30T10:30:54;102051.16;;;8.77;100.00
69060;BME280;56135;37.534;-122.308;2022-10-30T10:45:43;102037.50;;;8.46;100.00
69060;BME280;56135;37.534;-122.308;2022-10-30T10:50:44;102031.16;;;8.37;100.00
69060;BME280;56135;37.534;-122.308;2022-10-30T10:53:23;102041.63;;;8.33;100.00
69060;BME280;56135;37.534;-122.308;2022-10-30T10:55:51;102034.53;;;8.29;100.00
69060;BME280;56135;37.534;-122.308;2022-10-30T10:58:26;102042.41;;;8.26;100.00
69060;BME280;56135;37.534;-122.308;2022-10-30T11:00:54;102040.63;;;8.25;100.00
69060;BME280;56135;37.534;-122.308;2022-10-30T11:03:27;102044.09;;;8.24;100.00
69060;BME280;56135;37.534;-122.308;2022-10-30T11:06:28;102036.16;;;8.21;100.00
69060;BME280;56135;37.534;-122.308;2022-10-30T11:08:46;102042.31;;;8.22;100.00
69060;BME280;56135;37.534;-122.308;2022-10-30T11:11:11;102035.28;;;8.22;100.00
69060;BME280;56135;37.534;-122.308;2022-10-30T11:13:39;102039.66;;;8.22;100.00
69060;BME280;56135;37.534;-122.308;2022-10-30T11:16:10;102035.28;;;8.22;100.00
69060;BME280;56135;37.534;-122.308;2022-10-30T11:18:38;102025.69;;;8.24;100.00
69060;BME280;56135;37.534;-122.308;2022-10-30T11:21:08;102038.97;;;8.30;100.00
69060;BME280;56135;37.534;-122.308;2022-10-30T11:23:35;102041.63;;;8.33;100.00
69060;BME280;56135;37.534;-122.308;2022-10-30T11:26:04;102035.66;;;8.42;100.00
69060;BME280;56135;37.534;-122.308;2022-10-30T11:33:42;102031.63;;;8.63;100.00
69060;BME280;56135;37.534;-122.308;2022-10-30T11:36:08;102031.75;;;8.72;100.00
69060;BME280;56135;37.534;-122.308;2022-10-30T11:38:34;102028.41;;;8.82;100.00
69060;BME280;56135;37.534;-122.308;2022-10-30T11:41:00;102032.94;;;8.91;100.00
69060;BME280;56135;37.534;-122.308;2022-10-30T11:43:26;102036.56;;;8.99;100.00
69060;BME280;56135;37.534;-122.308;2022-10-30T11:45:52;102039.31;;;9.07;100.00
69060;BME280;56135;37.534;-122.308;2022-10-30T11:48:23;102041.19;;;9.16;100.00
69060;BME280;56135;37.534;-122.308;2022-10-30T11:50:51;102047.50;;;9.27;100.00
69060;BME280;56135;37.534;-122.308;2022-10-30T11:53:24;102041.44;;;9.38;100.00
69060;BME280;56135;37.534;-122.308;2022-10-30T11:55:55;102045.94;;;9.42;100.00
69060;BME280;56135;37.534;-122.308;2022-10-30T11:58:29;102040.69;;;9.46;100.00
69060;BME280;56135;37.534;-122.308;2022-10-30T12:01:15;102038.06;;;9.48;100.00
69060;BME280;56135;37.534;-122.308;2022-10-30T12:03:43;102045.16;;;9.52;100.00
69060;BME280;56135;37.534;-122.308;2022-10-30T12:06:19;102042.56;;;9.54;100.00
69060;BME280;56135;37.534;-122.308;2022-10-30T12:11:33;102050.53;;;9.58;100.00
69060;BME280;56135;37.534;-122.308;2022-10-30T12:13:59;102051.44;;;9.62;100.00
69060;BME280;56135;37.534;-122.308;2022-10-30T12:16:26;102056.75;;;9.65;100.00
69060;BME280;56135;37.534;-122.308;2022-10-30T12:18:53;102050.63;;;9.67;100.00
69060;BME280;56135;37.534;-122.308;2022-10-30T12:21:22;102056.84;;;9.71;100.00
69060;BME280;56135;37.534;-122.308;2022-10-30T12:23:54;102050.72;;;9.74;100.00
69060;BME280;56135;37.534;-122.308;2022-10-30T12:26:20;102048.97;;;9.76;100.00
69060;BME280;56135;37.534;-122.308;2022-10-30T12:28:52;102055.16;;;9.78;100.00
69060;BME280;56135;37.534;-122.308;2022-10-30T12:31:21;102054.28;;;9.79;100.00
69060;BME280;56135;37.534;-122.308;2022-10-30T12:36:33;102059.63;;;9.85;100.00
69060;BME280;56135;37.534;-122.308;2022-10-30T12:39:08;102046.47;;;9.88;100.00
69060;BME280;56135;37.534;-122.308;2022-10-30T12:44:23;102050.06;;;9.95;100.00
69060;BME280;56135;37.534;-122.308;2022-10-30T12:46:59;102055.38;;;9.98;100.00
69060;BME280;56135;37.534;-122.308;2022-10-30T12:49:49;102063.31;;;10.01;100.00
69060;BME280;56135;37.534;-122.308;2022-10-30T12:57:57;102056.38;;;10.11;100.00
69060;BME280;56135;37.534;-122.308;2022-10-30T13:00:27;102058.19;;;10.15;100.00
69060;BME280;56135;37.534;-122.308;2022-10-30T13:10:26;102052.09;;;10.24;100.00
69060;BME280;56135;37.534;-122.308;2022-10-30T13:12:56;102060.91;;;10.24;100.00
69060;BME280;56135;37.534;-122.308;2022-10-30T13:15:32;102047.72;;;10.24;100.00
69060;BME280;56135;37.534;-122.308;2022-10-30T13:18:08;102050.38;;;10.29;100.00
69060;BME280;56135;37.534;-122.308;2022-10-30T13:20:38;102052.16;;;10.31;100.00
69060;BME280;56135;37.534;-122.308;2022-10-30T13:23:14;102048.66;;;10.32;100.00
69060;BME280;56135;37.534;-122.308;2022-10-30T13:28:14;102046.06;;;10.35;100.00
69060;BME280;56135;37.534;-122.308;2022-10-30T13:31:08;102054.91;;;10.38;100.00
69060;BME280;56135;37.534;-122.308;2022-10-30T13:40:57;102050.56;;;10.46;100.00
69060;BME280;56135;37.534;-122.308;2022-10-30T13:54:03;102037.50;;;10.60;100.00
69060;BME280;56135;37.534;-122.308;2022-10-30T13:56:31;102039.28;;;10.64;100.00
69060;BME280;56135;37.534;-122.308;2022-10-30T14:01:41;102038.44;;;10.68;100.00
69060;BME280;56135;37.534;-122.308;2022-10-30T14:09:05;102037.56;;;10.71;100.00
69060;BME280;56135;37.534;-122.308;2022-10-30T14:11:34;102037.56;;;10.71;100.00
69060;BME280;56135;37.534;-122.308;2022-10-30T14:14:03;102039.34;;;10.73;100.00
69060;BME280;56135;37.534;-122.308;2022-10-30T14:16:40;102031.41;;;10.73;100.00
69060;BME280;56135;37.534;-122.308;2022-10-30T14:19:07;102033.22;;;10.77;100.00